createdAt,value
2023-07-29T00:02:18.531Z,1.80
2023-07-29T00:04:46.615Z,2.30
2023-07-29T00:07:14.580Z,2.20
2023-07-29T00:09:42.550Z,2.00
2023-07-29T00:12:10.601Z,2.07
2023-07-29T00:14:38.569Z,2.90
2023-07-29T00:17:08.142Z,2.47
2023-07-29T00:19:36.224Z,1.80
2023-07-29T00:22:04.403Z,2.50
2023-07-29T00:24:32.436Z,2.60
2023-07-29T00:27:00.532Z,3.97
2023-07-29T00:29:28.468Z,1.60
2023-07-29T00:31:56.544Z,2.13
2023-07-29T00:34:25.901Z,2.17
2023-07-29T00:36:53.917Z,3.40
2023-07-29T00:39:21.893Z,3.70
2023-07-29T00:41:49.897Z,2.13
2023-07-29T00:44:17.917Z,2.90
2023-07-29T00:46:49.476Z,1.87
2023-07-29T00:49:17.603Z,1.97
2023-07-29T00:51:47.295Z,3.07
2023-07-29T00:54:15.777Z,2.40
2023-07-29T00:56:43.898Z,2.00
2023-07-29T00:59:11.988Z,2.73
2023-07-29T01:01:40.690Z,2.10
2023-07-29T01:04:08.753Z,1.90
2023-07-29T01:06:55.635Z,2.70
2023-07-29T01:09:32.903Z,3.40
2023-07-29T01:12:12.133Z,1.47
2023-07-29T01:14:49.405Z,2.07
2023-07-29T01:17:25.443Z,2.67
2023-07-29T01:20:04.443Z,2.60
2023-07-29T01:22:33.977Z,1.97
2023-07-29T01:25:03.580Z,3.00
2023-07-29T01:27:31.832Z,5.50
2023-07-29T01:30:01.187Z,2.37
2023-07-29T01:32:38.245Z,2.30
2023-07-29T01:35:21.563Z,2.47
2023-07-29T01:37:55.031Z,1.70
2023-07-29T01:40:28.211Z,3.40
2023-07-29T01:42:56.616Z,1.60
2023-07-29T01:45:26.577Z,3.83
2023-07-29T01:47:54.868Z,2.60
2023-07-29T01:50:22.911Z,2.20
2023-07-29T01:52:50.955Z,2.03
2023-07-29T01:55:19.045Z,1.80
2023-07-29T01:57:48.390Z,2.43
2023-07-29T02:00:17.400Z,1.80
2023-07-29T02:02:45.503Z,1.70
2023-07-29T02:05:13.490Z,2.50
2023-07-29T02:07:41.485Z,6.10
2023-07-29T02:10:10.624Z,2.17
2023-07-29T02:12:38.656Z,1.90
2023-07-29T02:15:10.503Z,2.30
2023-07-29T02:17:38.777Z,2.67
2023-07-29T02:20:08.421Z,6.23
2023-07-29T02:22:36.574Z,3.83
2023-07-29T02:25:05.399Z,1.67
2023-07-29T02:27:34.381Z,2.23
2023-07-29T02:30:02.420Z,1.97
2023-07-29T02:32:31.898Z,1.70
2023-07-29T02:35:00.366Z,2.63
2023-07-29T02:37:28.353Z,4.47
2023-07-29T02:39:56.329Z,2.03
2023-07-29T02:42:24.347Z,1.73
2023-07-29T02:44:52.641Z,2.67
2023-07-29T02:47:20.608Z,3.20
2023-07-29T02:49:49.940Z,2.10
2023-07-29T02:52:17.915Z,2.03
2023-07-29T02:54:45.929Z,1.70
2023-07-29T02:57:15.703Z,3.57
2023-07-29T02:59:43.674Z,1.70
2023-07-29T03:02:11.637Z,1.87
2023-07-29T03:04:39.622Z,2.00
2023-07-29T03:07:08.958Z,1.60
2023-07-29T03:09:36.943Z,2.00
2023-07-29T03:12:05.318Z,1.70
2023-07-29T03:14:33.461Z,2.43
2023-07-29T03:17:05.319Z,2.27
2023-07-29T03:19:33.345Z,2.17
2023-07-29T03:22:01.322Z,1.87
2023-07-29T03:24:30.856Z,1.50
2023-07-29T03:26:58.822Z,2.43
2023-07-29T03:29:26.827Z,2.70
2023-07-29T03:31:55.987Z,2.63
2023-07-29T03:34:24.227Z,1.70
2023-07-29T03:36:52.635Z,2.10
2023-07-29T03:39:20.707Z,2.03
2023-07-29T03:41:50.491Z,1.60
2023-07-29T03:44:19.268Z,2.00
2023-07-29T03:46:47.338Z,2.10
2023-07-29T03:49:15.349Z,1.70
2023-07-29T03:51:43.460Z,2.60
2023-07-29T03:54:11.493Z,2.03
2023-07-29T03:56:39.899Z,2.07
2023-07-29T03:59:09.650Z,1.70
2023-07-29T04:01:37.646Z,2.30
2023-07-29T04:04:06.054Z,1.80
2023-07-29T04:06:34.831Z,1.87
2023-07-29T04:09:03.155Z,2.33
2023-07-29T04:11:31.154Z,1.50
2023-07-29T04:13:59.154Z,1.70
2023-07-29T04:16:29.659Z,2.17
2023-07-29T04:18:57.674Z,1.93
2023-07-29T04:21:25.733Z,1.63
2023-07-29T04:23:53.740Z,1.80
2023-07-29T04:26:21.744Z,1.80
2023-07-29T04:28:49.690Z,1.93
2023-07-29T04:31:17.695Z,2.27
2023-07-29T04:33:46.990Z,2.30
2023-07-29T04:36:14.997Z,1.90
2023-07-29T04:38:43.011Z,2.43
2023-07-29T04:41:12.043Z,1.90
2023-07-29T04:43:40.006Z,1.37
2023-07-29T04:46:09.868Z,1.50
2023-07-29T04:48:37.970Z,2.90
2023-07-29T04:51:07.288Z,2.30
2023-07-29T04:53:35.982Z,1.60
2023-07-29T04:56:05.179Z,1.70
2023-07-29T04:58:35.824Z,1.80
2023-07-29T05:01:04.384Z,2.43
2023-07-29T05:03:32.785Z,1.63
2023-07-29T05:06:01.525Z,1.90
2023-07-29T05:08:31.215Z,1.40
2023-07-29T05:10:59.183Z,2.50
2023-07-29T05:13:28.416Z,1.60
2023-07-29T05:15:57.236Z,3.40
2023-07-29T05:18:25.331Z,2.23
2023-07-29T05:20:53.328Z,1.80
2023-07-29T05:23:21.408Z,2.40
2023-07-29T05:25:50.751Z,5.00
2023-07-29T05:28:18.725Z,4.83
2023-07-29T05:30:46.775Z,1.53
2023-07-29T05:33:14.856Z,4.30
2023-07-29T05:35:42.895Z,1.87
2023-07-29T05:38:10.883Z,3.17
2023-07-29T05:40:38.848Z,3.93
2023-07-29T05:43:08.185Z,2.27
2023-07-29T05:45:36.235Z,7.23
2023-07-29T05:48:04.374Z,9.23
2023-07-29T05:50:32.370Z,2.83
2023-07-29T05:53:00.349Z,13.57
2023-07-29T05:55:28.428Z,30.13
2023-07-29T05:57:56.414Z,19.50
2023-07-29T06:00:25.757Z,10.90
2023-07-29T06:02:53.852Z,8.10
2023-07-29T06:05:21.853Z,10.90
2023-07-29T06:07:49.837Z,8.43
2023-07-29T06:10:19.599Z,13.40
2023-07-29T06:12:48.093Z,11.33
2023-07-29T06:15:16.157Z,8.17
2023-07-29T06:17:45.569Z,11.30
2023-07-29T06:20:13.774Z,13.13
2023-07-29T06:22:41.794Z,10.43
2023-07-29T06:25:10.367Z,11.63
2023-07-29T06:27:38.403Z,12.20
2023-07-29T06:30:08.047Z,7.60
2023-07-29T06:32:36.508Z,8.30
2023-07-29T06:35:06.764Z,13.20
2023-07-29T06:37:35.255Z,7.87
2023-07-29T06:40:03.573Z,8.80
2023-07-29T06:42:31.568Z,14.77
2023-07-29T06:44:59.579Z,8.67
2023-07-29T06:47:27.653Z,6.83
2023-07-29T06:49:56.152Z,9.03
2023-07-29T06:52:25.586Z,5.33
2023-07-29T06:54:53.616Z,4.07
2023-07-29T06:57:21.605Z,8.47
2023-07-29T06:59:49.588Z,6.33
2023-07-29T07:02:17.636Z,6.63
2023-07-29T07:04:45.625Z,4.73
2023-07-29T07:07:13.625Z,5.10
2023-07-29T07:09:42.895Z,4.50
2023-07-29T07:12:10.879Z,4.63
2023-07-29T07:14:39.647Z,4.40
2023-07-29T07:17:09.171Z,3.57
2023-07-29T07:19:38.207Z,3.83
2023-07-29T07:22:06.349Z,4.70
2023-07-29T07:24:34.326Z,3.57
2023-07-29T07:27:04.189Z,3.80
2023-07-29T07:29:32.188Z,7.33
2023-07-29T07:32:01.134Z,3.87
2023-07-29T07:34:29.183Z,3.07
2023-07-29T07:36:57.155Z,3.73
2023-07-29T07:39:25.164Z,2.90
2023-07-29T07:41:53.140Z,3.53
2023-07-29T07:44:22.888Z,3.23
2023-07-29T07:46:50.896Z,1.90
2023-07-29T07:49:18.903Z,4.47
2023-07-29T07:51:47.037Z,2.13
2023-07-29T07:54:15.010Z,3.37
2023-07-29T07:56:43.166Z,2.43
2023-07-29T07:59:11.180Z,2.20
2023-07-29T08:01:41.637Z,2.00
2023-07-29T08:04:09.709Z,2.47
2023-07-29T08:06:37.914Z,2.53
2023-07-29T08:09:06.055Z,5.10
2023-07-29T08:11:34.036Z,2.77
2023-07-29T08:14:02.043Z,1.73
2023-07-29T08:16:30.067Z,1.77
2023-07-29T08:18:59.510Z,3.10
2023-07-29T08:21:29.206Z,4.00
2023-07-29T08:23:57.228Z,2.50
2023-07-29T08:26:25.221Z,1.73
2023-07-29T08:28:55.246Z,1.73
2023-07-29T08:31:23.545Z,2.07
2023-07-29T08:33:51.622Z,2.40
2023-07-29T08:36:21.052Z,2.30
2023-07-29T08:38:49.117Z,3.27
2023-07-29T08:41:22.831Z,2.50
2023-07-29T08:43:57.518Z,2.00
2023-07-29T08:46:26.024Z,1.93
2023-07-29T08:48:55.721Z,2.80
2023-07-29T08:51:26.206Z,3.10
2023-07-29T08:53:54.583Z,3.80
2023-07-29T08:56:22.698Z,2.23
2023-07-29T08:58:51.084Z,2.80
2023-07-29T09:01:19.498Z,2.90
2023-07-29T09:03:47.644Z,2.03
2023-07-29T09:06:16.883Z,3.10
2023-07-29T09:08:47.258Z,1.17
2023-07-29T09:11:17.312Z,1.83
2023-07-29T09:13:45.515Z,1.60
2023-07-29T09:16:14.403Z,1.63
2023-07-29T09:18:42.570Z,1.33
2023-07-29T09:21:10.722Z,1.63
2023-07-29T09:23:43.014Z,1.63
2023-07-29T09:26:12.686Z,1.20
2023-07-29T09:28:42.265Z,1.50
2023-07-29T09:31:22.167Z,3.47
2023-07-29T09:33:50.698Z,1.30
2023-07-29T09:36:18.829Z,2.43
2023-07-29T09:38:47.084Z,1.40
2023-07-29T09:41:18.374Z,2.90
2023-07-29T09:43:46.604Z,1.40
2023-07-29T09:46:14.602Z,1.73
2023-07-29T09:48:43.692Z,1.60
2023-07-29T09:51:13.422Z,1.60
2023-07-29T09:53:46.805Z,2.40
2023-07-29T09:56:17.303Z,2.00
2023-07-29T09:58:47.045Z,8.23
2023-07-29T10:01:16.077Z,2.50
2023-07-29T10:03:46.634Z,2.07
2023-07-29T10:06:17.344Z,1.83
2023-07-29T10:08:45.614Z,2.07
2023-07-29T10:11:15.599Z,2.23
2023-07-29T10:13:47.908Z,3.10
2023-07-29T10:16:22.660Z,2.13
2023-07-29T10:18:51.039Z,2.50
2023-07-29T10:21:19.396Z,1.60
2023-07-29T10:23:52.091Z,1.73
2023-07-29T10:26:22.562Z,1.90
2023-07-29T10:28:53.595Z,2.20
2023-07-29T10:31:23.566Z,2.00
2023-07-29T10:33:52.068Z,1.70
2023-07-29T10:36:22.944Z,2.20
2023-07-29T10:38:51.945Z,2.43
2023-07-29T10:41:21.367Z,2.37
2023-07-29T10:43:49.372Z,2.40
2023-07-29T10:46:19.203Z,2.00
2023-07-29T10:48:55.843Z,1.50
2023-07-29T10:51:30.377Z,2.50
2023-07-29T10:54:00.044Z,1.70
2023-07-29T10:56:35.737Z,2.00
2023-07-29T10:59:34.615Z,1.80
2023-07-29T11:02:14.395Z,2.57
2023-07-29T11:04:49.553Z,1.90
2023-07-29T11:07:27.361Z,1.87
2023-07-29T11:10:01.113Z,2.37
2023-07-29T11:12:52.013Z,2.30
2023-07-29T11:15:23.765Z,3.53
2023-07-29T11:17:54.195Z,2.00
2023-07-29T11:20:24.221Z,4.00
2023-07-29T11:22:52.499Z,1.40
2023-07-29T11:25:21.484Z,2.57
2023-07-29T11:27:53.245Z,2.40
2023-07-29T11:30:21.499Z,2.23
2023-07-29T11:32:49.933Z,3.40
2023-07-29T11:35:19.646Z,2.53
2023-07-29T11:37:49.325Z,1.57
2023-07-29T11:40:18.657Z,2.93
2023-07-29T11:42:47.731Z,2.90
2023-07-29T11:45:18.485Z,1.83
2023-07-29T11:47:47.244Z,1.93
2023-07-29T11:50:16.945Z,1.70
2023-07-29T11:52:46.743Z,2.20
2023-07-29T11:55:16.767Z,2.13
2023-07-29T11:57:45.507Z,2.67
2023-07-29T12:00:15.480Z,2.53
2023-07-29T12:02:46.555Z,3.00
2023-07-29T12:05:16.573Z,1.80
2023-07-29T12:07:46.481Z,1.80
2023-07-29T12:10:15.086Z,2.93
2023-07-29T12:12:50.202Z,1.60
2023-07-29T12:15:26.106Z,1.60
2023-07-29T12:18:00.891Z,5.10
2023-07-29T12:20:31.438Z,3.00
2023-07-29T12:23:02.326Z,1.90
2023-07-29T12:25:31.174Z,1.70
2023-07-29T12:28:04.231Z,3.47
2023-07-29T12:30:32.371Z,1.80
2023-07-29T12:33:01.731Z,2.03
2023-07-29T12:35:40.512Z,1.73
2023-07-29T12:38:08.607Z,4.63
2023-07-29T12:40:43.084Z,2.70
2023-07-29T12:43:11.385Z,4.00
2023-07-29T12:45:41.038Z,2.00
2023-07-29T12:48:10.635Z,1.57
2023-07-29T12:50:39.388Z,1.70
2023-07-29T12:53:09.099Z,2.47
2023-07-29T12:55:37.285Z,3.23
2023-07-29T12:58:05.559Z,1.83
2023-07-29T13:00:33.669Z,1.60
2023-07-29T13:03:01.750Z,1.70
2023-07-29T13:05:31.127Z,1.50
2023-07-29T13:07:59.109Z,2.10
2023-07-29T13:10:27.084Z,2.23
2023-07-29T13:12:55.106Z,1.93
2023-07-29T13:15:23.211Z,5.80
2023-07-29T13:17:51.276Z,2.50
2023-07-29T13:20:19.304Z,3.10
2023-07-29T13:22:48.638Z,4.40
2023-07-29T13:25:16.685Z,2.73
2023-07-29T13:27:44.784Z,3.23
2023-07-29T13:30:12.967Z,2.33
2023-07-29T13:32:40.994Z,4.13
2023-07-29T13:35:09.957Z,2.80
2023-07-29T13:37:37.965Z,2.00
2023-07-29T13:40:09.419Z,1.90
2023-07-29T13:42:37.419Z,2.47
2023-07-29T13:45:06.490Z,2.53
2023-07-29T13:47:34.505Z,1.63
2023-07-29T13:50:03.066Z,2.10
2023-07-29T13:52:31.196Z,1.90
2023-07-29T13:54:59.153Z,2.60
2023-07-29T13:57:28.468Z,3.23
2023-07-29T13:59:56.433Z,4.10
2023-07-29T14:02:24.646Z,2.00
2023-07-29T14:04:52.665Z,2.57
2023-07-29T14:07:20.908Z,2.60
2023-07-29T14:09:48.934Z,2.57
2023-07-29T14:12:16.960Z,3.90
2023-07-29T14:14:46.495Z,2.63
2023-07-29T14:17:14.533Z,2.87
2023-07-29T14:19:42.503Z,2.17
2023-07-29T14:22:10.501Z,3.83
2023-07-29T14:24:38.517Z,2.00
2023-07-29T14:27:07.515Z,2.03
2023-07-29T14:29:35.496Z,2.37
2023-07-29T14:32:05.646Z,2.43
2023-07-29T14:34:33.624Z,2.67
2023-07-29T14:37:01.639Z,2.33
2023-07-29T14:39:29.659Z,3.03
2023-07-29T14:41:57.629Z,2.30
2023-07-29T14:44:25.944Z,2.90
2023-07-29T14:46:54.562Z,2.77
2023-07-29T14:49:23.971Z,3.60
2023-07-29T14:51:52.007Z,3.30
2023-07-29T14:54:19.979Z,2.80
2023-07-29T14:56:48.188Z,3.13
2023-07-29T14:59:16.186Z,2.40
2023-07-29T15:01:44.176Z,2.13
2023-07-29T15:04:12.176Z,3.20
2023-07-29T15:06:41.479Z,2.20
2023-07-29T15:09:09.462Z,3.60
2023-07-29T15:11:37.614Z,1.93
2023-07-29T15:14:05.679Z,3.30
2023-07-29T15:16:35.273Z,1.67
2023-07-29T15:19:05.244Z,2.80
2023-07-29T15:21:34.402Z,2.37
2023-07-29T15:24:03.773Z,1.90
2023-07-29T15:26:31.791Z,3.30
2023-07-29T15:29:02.096Z,2.70
2023-07-29T15:31:30.255Z,2.30
2023-07-29T15:33:58.354Z,2.10
2023-07-29T15:36:26.421Z,2.00
2023-07-29T15:38:54.402Z,2.30
2023-07-29T15:41:23.790Z,2.13
2023-07-29T15:43:52.018Z,2.93
2023-07-29T15:46:20.048Z,1.73
2023-07-29T15:48:48.061Z,2.20
2023-07-29T15:51:16.068Z,1.87
2023-07-29T15:53:44.039Z,2.17
2023-07-29T15:56:12.003Z,1.77
2023-07-29T15:58:41.313Z,2.20
2023-07-29T16:01:09.330Z,2.20
2023-07-29T16:03:37.763Z,2.10
2023-07-29T16:06:05.849Z,1.73
2023-07-29T16:08:33.846Z,2.23
2023-07-29T16:11:01.840Z,3.10
2023-07-29T16:13:29.842Z,2.33
2023-07-29T16:15:59.975Z,2.10
2023-07-29T16:18:28.037Z,2.00
2023-07-29T16:21:02.367Z,2.73
2023-07-29T16:23:30.505Z,1.97
2023-07-29T16:25:58.498Z,2.13
2023-07-29T16:28:26.832Z,2.30
2023-07-29T16:30:55.412Z,2.97
2023-07-29T16:33:24.798Z,1.80
2023-07-29T16:35:52.761Z,2.40
2023-07-29T16:38:20.765Z,2.50
2023-07-29T16:41:06.171Z,4.80
2023-07-29T16:43:38.556Z,2.27
2023-07-29T16:46:06.884Z,2.87
2023-07-29T16:48:36.487Z,1.83
2023-07-29T16:51:05.507Z,1.93
2023-07-29T16:53:33.572Z,1.77
2023-07-29T16:56:01.965Z,3.30
2023-07-29T16:58:29.906Z,1.60
2023-07-29T17:00:57.882Z,1.83
2023-07-29T17:03:25.989Z,2.83
2023-07-29T17:05:57.831Z,2.63
2023-07-29T17:08:25.810Z,2.40
2023-07-29T17:10:54.321Z,2.20
2023-07-29T17:13:22.330Z,3.20
2023-07-29T17:15:50.353Z,2.30
2023-07-29T17:18:18.361Z,2.23
2023-07-29T17:20:46.369Z,2.60
2023-07-29T17:23:15.728Z,3.30
2023-07-29T17:25:43.893Z,4.33
2023-07-29T17:28:11.934Z,3.00
2023-07-29T17:30:39.963Z,3.13
2023-07-29T17:33:08.037Z,3.43
2023-07-29T17:35:36.025Z,3.63
2023-07-29T17:38:04.002Z,2.80
2023-07-29T17:40:33.298Z,4.10
2023-07-29T17:43:01.275Z,3.17
2023-07-29T17:45:29.622Z,3.57
2023-07-29T17:47:57.679Z,2.90
2023-07-29T17:50:26.018Z,3.57
2023-07-29T17:52:56.032Z,2.70
2023-07-29T17:55:24.007Z,4.27
2023-07-29T17:57:53.334Z,3.80
2023-07-29T18:00:21.522Z,3.40
2023-07-29T18:02:49.975Z,3.40
2023-07-29T18:05:18.292Z,2.87
2023-07-29T18:07:46.291Z,5.93
2023-07-29T18:10:14.486Z,4.67
2023-07-29T18:12:42.928Z,3.50
2023-07-29T18:15:13.190Z,4.00
2023-07-29T18:17:42.281Z,3.43
2023-07-29T18:20:12.033Z,4.20
2023-07-29T18:22:39.997Z,5.47
2023-07-29T18:25:09.363Z,4.10
2023-07-29T18:27:38.716Z,4.10
2023-07-29T18:30:08.535Z,4.03
2023-07-29T18:32:37.970Z,4.30
2023-07-29T18:35:07.402Z,3.33
2023-07-29T18:37:35.362Z,6.17
2023-07-29T18:40:03.782Z,3.33
2023-07-29T18:42:31.795Z,4.40
2023-07-29T18:44:59.750Z,3.53
2023-07-29T18:47:27.741Z,4.83
2023-07-29T18:49:57.027Z,3.17
2023-07-29T18:52:25.090Z,3.73
2023-07-29T18:54:53.270Z,3.23
2023-07-29T18:57:21.250Z,8.40
2023-07-29T18:59:49.227Z,6.27
2023-07-29T19:02:17.256Z,5.50
2023-07-29T19:04:48.105Z,3.70
2023-07-29T19:07:17.546Z,3.90
2023-07-29T19:09:46.139Z,5.33
2023-07-29T19:12:15.064Z,4.50
2023-07-29T19:14:43.441Z,3.53
2023-07-29T19:17:11.477Z,5.37
2023-07-29T19:19:39.470Z,4.40
2023-07-29T19:22:07.867Z,5.17
2023-07-29T19:24:37.183Z,5.27
2023-07-29T19:27:07.629Z,6.07
2023-07-29T19:29:37.155Z,8.37
2023-07-29T19:32:05.829Z,5.20
2023-07-29T19:34:33.920Z,5.43
2023-07-29T19:37:02.228Z,3.00
2023-07-29T19:39:30.210Z,4.03
2023-07-29T19:41:59.515Z,6.03
2023-07-29T19:44:27.906Z,6.90
2023-07-29T19:46:56.275Z,3.87
2023-07-29T19:49:24.328Z,3.53
2023-07-29T19:51:54.628Z,5.20
2023-07-29T19:54:22.670Z,6.20
2023-07-29T19:56:50.685Z,4.20
2023-07-29T19:59:20.384Z,4.73
2023-07-29T20:01:49.699Z,4.17
2023-07-29T20:04:17.851Z,7.03
2023-07-29T20:06:46.134Z,4.30
2023-07-29T20:09:14.240Z,7.20
2023-07-29T20:11:42.188Z,4.87
2023-07-29T20:14:10.413Z,5.77
2023-07-29T20:16:39.742Z,4.63
2023-07-29T20:19:08.089Z,4.63
2023-07-29T20:21:36.216Z,6.97
2023-07-29T20:24:06.077Z,6.13
2023-07-29T20:26:35.575Z,5.23
2023-07-29T20:29:03.595Z,5.10
2023-07-29T20:31:31.620Z,5.30
2023-07-29T20:34:01.005Z,5.13
2023-07-29T20:36:30.642Z,5.07
2023-07-29T20:38:58.837Z,5.40
2023-07-29T20:41:26.936Z,4.23
2023-07-29T20:43:54.990Z,5.40
2023-07-29T20:46:24.608Z,4.13
2023-07-29T20:48:53.054Z,5.10
2023-07-29T20:51:22.810Z,4.77
2023-07-29T20:53:50.793Z,5.00
2023-07-29T20:56:18.948Z,4.60
2023-07-29T20:58:47.506Z,5.40
2023-07-29T21:01:15.495Z,4.30
2023-07-29T21:03:43.570Z,5.67
2023-07-29T21:06:12.482Z,4.97
2023-07-29T21:08:41.850Z,4.60
2023-07-29T21:11:09.815Z,5.73
2023-07-29T21:13:37.774Z,4.43
2023-07-29T21:16:06.175Z,4.83
2023-07-29T21:18:34.199Z,5.37
2023-07-29T21:21:02.197Z,6.53
2023-07-29T21:23:30.562Z,4.73
2023-07-29T21:25:59.847Z,4.27
2023-07-29T21:28:28.007Z,3.57
2023-07-29T21:30:58.069Z,3.70
2023-07-29T21:33:28.501Z,3.03
2023-07-29T21:35:56.458Z,4.20
2023-07-29T21:38:29.982Z,5.13
2023-07-29T21:40:59.851Z,4.50
2023-07-29T21:43:27.846Z,3.13
2023-07-29T21:45:55.886Z,3.90
2023-07-29T21:48:23.833Z,3.60
2023-07-29T21:50:56.826Z,3.40
2023-07-29T21:53:26.026Z,2.60
2023-07-29T21:55:55.075Z,2.90
2023-07-29T21:58:24.740Z,2.63
2023-07-29T22:00:54.139Z,4.13
2023-07-29T22:03:22.348Z,2.93
2023-07-29T22:05:50.460Z,3.07
2023-07-29T22:08:18.386Z,2.73
2023-07-29T22:10:46.413Z,2.87
2023-07-29T22:13:14.472Z,2.30
2023-07-29T22:15:43.788Z,2.53
2023-07-29T22:18:12.294Z,1.73
2023-07-29T22:20:40.932Z,2.13
2023-07-29T22:23:09.061Z,3.60
2023-07-29T22:25:37.048Z,2.33
2023-07-29T22:28:05.445Z,2.57
2023-07-29T22:30:38.278Z,2.40
2023-07-29T22:33:07.663Z,3.80
2023-07-29T22:35:35.900Z,6.50
2023-07-29T22:38:04.134Z,2.90
2023-07-29T22:40:32.130Z,3.10
2023-07-29T22:43:00.067Z,3.07
2023-07-29T22:45:28.079Z,2.40
2023-07-29T22:47:56.134Z,2.37
2023-07-29T22:50:25.855Z,2.53
2023-07-29T22:52:53.803Z,2.47
2023-07-29T22:55:21.771Z,2.83
2023-07-29T22:57:49.720Z,2.30
2023-07-29T23:00:17.751Z,4.20
2023-07-29T23:02:45.873Z,2.03
2023-07-29T23:05:14.159Z,3.53
2023-07-29T23:07:43.466Z,2.60
2023-07-29T23:10:11.703Z,3.20
2023-07-29T23:12:39.902Z,1.70
2023-07-29T23:15:08.388Z,1.80
2023-07-29T23:17:36.411Z,2.03
2023-07-29T23:20:05.762Z,2.50
2023-07-29T23:22:33.741Z,4.40
2023-07-29T23:25:03.520Z,1.90
2023-07-29T23:27:31.689Z,2.20
2023-07-29T23:29:59.681Z,2.70
2023-07-29T23:32:27.698Z,2.97
2023-07-29T23:34:55.724Z,2.20
2023-07-29T23:37:23.690Z,2.47
2023-07-29T23:39:51.754Z,2.40
2023-07-29T23:42:21.044Z,1.60
2023-07-29T23:44:49.016Z,4.50
2023-07-29T23:47:16.985Z,2.50
2023-07-29T23:49:45.403Z,2.60
2023-07-29T23:52:13.595Z,1.90
2023-07-29T23:54:41.780Z,2.20
2023-07-29T23:57:09.764Z,1.80
2023-07-29T23:59:39.456Z,1.53
